createdAt,value
2022-12-08T00:01:12.044Z,10.65
2022-12-08T00:03:39.686Z,10.95
2022-12-08T00:06:26.007Z,11.21
2022-12-08T00:09:13.198Z,10.98
2022-12-08T00:11:42.410Z,10.99
2022-12-08T00:14:09.806Z,10.94
2022-12-08T00:16:37.001Z,11.11
2022-12-08T00:19:04.192Z,11.14
2022-12-08T00:21:31.588Z,11.17
2022-12-08T00:23:58.725Z,11.31
2022-12-08T00:26:25.869Z,11.44
2022-12-08T00:28:53.305Z,11.46
2022-12-08T00:31:20.521Z,11.26
2022-12-08T00:33:47.715Z,11.33
2022-12-08T00:36:15.254Z,11.29
2022-12-08T00:38:42.493Z,11.34
2022-12-08T00:41:13.605Z,11.18
2022-12-08T00:43:41.046Z,11.39
2022-12-08T00:46:08.299Z,11.24
2022-12-08T00:48:35.494Z,11.42
2022-12-08T00:51:02.929Z,11.34
2022-12-08T00:53:30.518Z,11.40
2022-12-08T00:55:57.647Z,11.26
2022-12-08T00:58:25.061Z,11.37
2022-12-08T01:00:54.291Z,11.34
2022-12-08T01:03:21.500Z,11.34
2022-12-08T01:05:48.983Z,11.22
2022-12-08T01:08:16.202Z,11.26
2022-12-08T01:10:43.403Z,11.30
2022-12-08T01:13:11.423Z,11.40
2022-12-08T01:15:38.578Z,11.44
2022-12-08T01:18:05.714Z,11.39
2022-12-08T01:20:33.145Z,11.29
2022-12-08T01:23:00.281Z,11.44
2022-12-08T01:25:27.720Z,11.40
2022-12-08T01:27:55.152Z,11.26
2022-12-08T01:30:22.303Z,11.25
2022-12-08T01:32:49.433Z,11.09
2022-12-08T01:35:16.873Z,11.07
2022-12-08T01:37:44.199Z,11.11
2022-12-08T01:40:11.346Z,11.16
2022-12-08T01:42:38.764Z,11.24
2022-12-08T01:45:07.563Z,11.19
2022-12-08T01:47:36.703Z,11.16
2022-12-08T01:50:04.983Z,11.15
2022-12-08T01:52:34.405Z,11.08
2022-12-08T01:55:03.668Z,10.84
2022-12-08T01:57:32.354Z,10.93
2022-12-08T02:00:05.842Z,10.95
2022-12-08T02:02:39.823Z,11.02
2022-12-08T02:05:07.438Z,11.00
2022-12-08T02:07:34.740Z,11.20
2022-12-08T02:10:02.639Z,10.86
2022-12-08T02:12:30.466Z,10.72
2022-12-08T02:15:03.398Z,10.68
2022-12-08T02:17:46.859Z,10.62
2022-12-08T02:20:18.417Z,10.67
2022-12-08T02:22:54.904Z,10.67
2022-12-08T02:25:44.818Z,10.60
2022-12-08T02:28:15.303Z,10.81
2022-12-08T02:30:47.591Z,10.54
2022-12-08T02:33:18.053Z,10.52
2022-12-08T02:35:48.971Z,10.55
2022-12-08T02:38:28.683Z,10.65
2022-12-08T02:41:14.769Z,10.57
2022-12-08T02:43:43.769Z,10.60
2022-12-08T02:46:40.346Z,10.77
2022-12-08T02:49:07.765Z,10.90
2022-12-08T02:51:34.893Z,10.74
2022-12-08T02:54:02.319Z,10.79
2022-12-08T02:56:42.042Z,10.89
2022-12-08T02:59:18.307Z,10.92
2022-12-08T03:02:04.639Z,11.16
2022-12-08T03:04:46.267Z,11.10
2022-12-08T03:07:19.878Z,11.17
2022-12-08T03:10:01.227Z,11.27
2022-12-08T03:12:30.852Z,11.20
2022-12-08T03:14:58.656Z,11.30
2022-12-08T03:17:28.245Z,11.32
2022-12-08T03:19:55.647Z,11.29
2022-12-08T03:22:24.082Z,11.28
2022-12-08T03:24:51.415Z,11.34
2022-12-08T03:27:20.577Z,11.20
2022-12-08T03:29:48.638Z,11.50
2022-12-08T03:32:34.706Z,11.26
2022-12-08T03:35:03.567Z,11.34
2022-12-08T03:37:30.701Z,11.17
2022-12-08T03:39:57.991Z,11.08
2022-12-08T03:42:25.413Z,10.95
2022-12-08T03:44:52.549Z,11.06
2022-12-08T03:47:19.674Z,11.18
2022-12-08T03:49:47.089Z,10.59
2022-12-08T03:52:14.211Z,11.07
2022-12-08T03:54:41.371Z,11.44
2022-12-08T03:57:08.778Z,11.41
2022-12-08T03:59:35.903Z,11.37
2022-12-08T04:02:03.133Z,11.54
2022-12-08T04:04:30.872Z,11.40
2022-12-08T04:06:57.994Z,11.09
2022-12-08T04:09:25.133Z,11.41
2022-12-08T04:11:52.532Z,11.50
2022-12-08T04:14:19.835Z,11.36
2022-12-08T04:16:46.970Z,11.37
2022-12-08T04:19:15.329Z,11.47
2022-12-08T04:21:42.623Z,11.56
2022-12-08T04:24:09.765Z,11.36
2022-12-08T04:26:37.239Z,11.43
2022-12-08T04:29:04.357Z,11.49
2022-12-08T04:31:31.539Z,11.65
2022-12-08T04:33:58.972Z,11.64
2022-12-08T04:36:26.273Z,11.70
2022-12-08T04:38:53.412Z,11.71
2022-12-08T04:41:20.912Z,11.82
2022-12-08T04:43:48.051Z,11.60
2022-12-08T04:46:15.224Z,11.46
2022-12-08T04:48:42.832Z,11.47
2022-12-08T04:51:17.035Z,11.53
2022-12-08T04:53:46.709Z,11.44
2022-12-08T04:56:14.951Z,11.61
2022-12-08T04:58:42.156Z,11.48
2022-12-08T05:01:09.598Z,11.52
2022-12-08T05:03:36.879Z,11.69
2022-12-08T05:06:04.160Z,11.59
2022-12-08T05:08:32.208Z,11.61
2022-12-08T05:11:06.658Z,11.55
2022-12-08T05:13:34.393Z,11.35
2022-12-08T05:16:10.542Z,11.55
2022-12-08T05:18:38.096Z,11.65
2022-12-08T05:21:05.581Z,11.53
2022-12-08T05:23:32.736Z,11.37
2022-12-08T05:26:00.228Z,11.47
2022-12-08T05:28:43.770Z,11.66
2022-12-08T05:31:12.036Z,11.56
2022-12-08T05:33:39.210Z,11.73
2022-12-08T05:36:08.228Z,11.47
2022-12-08T05:38:35.908Z,11.35
2022-12-08T05:41:03.388Z,11.61
2022-12-08T05:43:30.568Z,11.35
2022-12-08T05:45:58.200Z,11.59
2022-12-08T05:48:25.515Z,11.72
2022-12-08T05:50:52.809Z,11.53
2022-12-08T05:53:20.262Z,11.55
2022-12-08T05:55:47.557Z,11.32
2022-12-08T05:58:15.592Z,11.45
2022-12-08T06:00:43.129Z,11.63
2022-12-08T06:03:13.806Z,11.63
2022-12-08T06:05:41.345Z,11.60
2022-12-08T06:08:08.702Z,11.68
2022-12-08T06:10:37.672Z,11.62
2022-12-08T06:13:04.794Z,11.47
2022-12-08T06:15:33.819Z,11.45
2022-12-08T06:18:01.243Z,11.51
2022-12-08T06:20:28.378Z,11.22
2022-12-08T06:22:55.806Z,11.29
2022-12-08T06:25:23.270Z,11.39
2022-12-08T06:27:50.419Z,11.47
2022-12-08T06:30:17.947Z,11.35
2022-12-08T06:32:45.365Z,11.58
2022-12-08T06:35:12.501Z,11.60
2022-12-08T06:37:39.632Z,11.68
2022-12-08T06:40:07.456Z,11.60
2022-12-08T06:42:43.948Z,11.52
2022-12-08T06:45:11.874Z,11.53
2022-12-08T06:47:39.040Z,11.64
2022-12-08T06:50:07.436Z,11.82
2022-12-08T06:52:40.876Z,11.81
2022-12-08T06:55:29.159Z,11.62
2022-12-08T06:58:00.433Z,11.50
2022-12-08T07:00:27.579Z,10.94
2022-12-08T07:02:54.776Z,9.91
2022-12-08T07:05:22.215Z,10.16
2022-12-08T07:07:49.691Z,10.86
2022-12-08T07:10:17.932Z,10.91
2022-12-08T07:12:45.353Z,10.89
2022-12-08T07:15:12.529Z,10.94
2022-12-08T07:17:39.650Z,11.10
2022-12-08T07:20:07.650Z,11.20
2022-12-08T07:22:34.964Z,11.01
2022-12-08T07:25:02.118Z,11.25
2022-12-08T07:27:29.551Z,11.40
2022-12-08T07:29:56.766Z,11.51
2022-12-08T07:32:24.047Z,11.69
2022-12-08T07:34:51.486Z,11.84
2022-12-08T07:37:18.611Z,11.88
2022-12-08T07:39:46.315Z,11.72
2022-12-08T07:42:13.736Z,11.93
2022-12-08T07:44:40.894Z,11.73
2022-12-08T07:47:08.064Z,11.39
2022-12-08T07:49:35.465Z,11.76
2022-12-08T07:52:02.610Z,11.69
2022-12-08T07:54:29.763Z,11.74
2022-12-08T07:56:57.398Z,11.67
2022-12-08T07:59:24.651Z,11.95
2022-12-08T08:02:13.164Z,10.33
2022-12-08T08:04:39.283Z,10.27
2022-12-08T08:07:09.002Z,9.25
2022-12-08T08:09:36.132Z,10.10
2022-12-08T08:12:29.750Z,10.76
2022-12-08T08:14:50.770Z,10.78
2022-12-08T08:17:18.353Z,11.43
2022-12-08T08:19:46.208Z,10.08
2022-12-08T08:22:13.345Z,10.56
2022-12-08T08:24:44.888Z,9.86
2022-12-08T08:27:12.524Z,10.10
2022-12-08T08:29:39.698Z,10.74
2022-12-08T08:32:07.137Z,10.41
2022-12-08T08:34:34.268Z,10.68
2022-12-08T08:37:01.456Z,10.69
2022-12-08T08:39:30.213Z,9.19
2022-12-08T08:41:57.420Z,10.29
2022-12-08T08:44:24.537Z,10.69
2022-12-08T08:46:51.968Z,10.85
2022-12-08T08:49:19.188Z,8.68
2022-12-08T08:51:47.503Z,9.93
2022-12-08T08:54:15.229Z,10.28
2022-12-08T08:56:42.364Z,10.81
2022-12-08T08:59:09.551Z,10.46
2022-12-08T09:01:37.025Z,11.03
2022-12-08T09:04:04.305Z,11.01
2022-12-08T09:06:31.500Z,11.18
2022-12-08T09:08:59.038Z,11.41
2022-12-08T09:11:26.149Z,9.84
2022-12-08T09:13:53.529Z,10.44
2022-12-08T09:16:21.211Z,11.01
2022-12-08T09:18:49.551Z,10.69
2022-12-08T09:21:20.382Z,11.02
2022-12-08T09:23:48.113Z,11.03
2022-12-08T09:26:15.270Z,11.03
2022-12-08T09:28:46.672Z,11.59
2022-12-08T09:31:14.451Z,11.54
2022-12-08T09:33:41.732Z,10.88
2022-12-08T09:36:09.472Z,10.06
2022-12-08T09:38:37.175Z,8.72
2022-12-08T09:41:04.826Z,8.26
2022-12-08T09:43:51.641Z,8.42
2022-12-08T09:46:19.429Z,9.37
2022-12-08T09:49:04.872Z,9.15
2022-12-08T09:51:34.702Z,8.55
2022-12-08T09:54:04.188Z,8.29
2022-12-08T09:56:32.968Z,7.97
2022-12-08T09:59:00.512Z,8.61
2022-12-08T10:01:29.315Z,8.15
2022-12-08T10:03:57.091Z,8.38
2022-12-08T10:06:24.161Z,7.53
2022-12-08T10:08:59.493Z,8.40
2022-12-08T10:11:29.240Z,8.91
2022-12-08T10:14:15.144Z,7.82
2022-12-08T10:16:42.774Z,8.14
2022-12-08T10:19:18.237Z,8.48
2022-12-08T10:21:45.748Z,8.46
2022-12-08T10:24:18.418Z,8.48
2022-12-08T10:26:45.922Z,7.56
2022-12-08T10:29:13.247Z,9.07
2022-12-08T10:31:40.496Z,7.46
2022-12-08T10:34:18.552Z,7.58
2022-12-08T10:36:48.878Z,7.76
2022-12-08T10:39:36.575Z,7.42
2022-12-08T10:42:08.714Z,7.91
2022-12-08T10:44:53.672Z,7.66
2022-12-08T10:47:21.192Z,8.55
2022-12-08T10:49:48.654Z,7.58
2022-12-08T10:52:23.037Z,8.69
2022-12-08T10:54:54.391Z,7.35
2022-12-08T10:57:22.572Z,8.25
2022-12-08T10:59:49.731Z,8.49
2022-12-08T11:02:20.335Z,7.65
2022-12-08T11:04:47.767Z,7.81
2022-12-08T11:07:20.925Z,7.36
2022-12-08T11:09:49.120Z,8.38
2022-12-08T11:12:16.931Z,7.53
2022-12-08T11:14:44.005Z,7.54
2022-12-08T11:17:24.419Z,7.80
2022-12-08T11:20:17.791Z,7.68
2022-12-08T11:22:47.235Z,7.05
2022-12-08T11:25:24.870Z,6.92
2022-12-08T11:27:59.129Z,7.64
2022-12-08T11:30:28.393Z,7.37
2022-12-08T11:32:56.707Z,8.05
2022-12-08T11:35:27.457Z,7.66
2022-12-08T11:38:08.102Z,7.43
2022-12-08T11:40:45.947Z,7.39
2022-12-08T11:43:19.511Z,6.89
2022-12-08T11:45:47.311Z,7.02
2022-12-08T11:48:14.435Z,7.41
2022-12-08T11:50:43.264Z,7.58
2022-12-08T11:53:30.890Z,7.35
2022-12-08T11:56:00.939Z,7.42
2022-12-08T11:58:31.728Z,7.22
2022-12-08T12:00:58.870Z,7.06
2022-12-08T12:03:39.045Z,7.44
2022-12-08T12:06:38.121Z,7.75
2022-12-08T12:09:10.057Z,7.14
2022-12-08T12:11:59.144Z,7.24
2022-12-08T12:14:31.499Z,6.96
2022-12-08T12:17:01.894Z,7.77
2022-12-08T12:19:30.353Z,7.82
2022-12-08T12:21:57.844Z,7.38
2022-12-08T12:24:29.335Z,8.25
2022-12-08T12:27:02.787Z,8.14
2022-12-08T12:29:30.772Z,8.89
2022-12-08T12:32:15.971Z,8.53
2022-12-08T12:34:56.847Z,8.43
2022-12-08T12:37:24.958Z,9.30
2022-12-08T12:39:52.415Z,9.30
2022-12-08T12:42:38.243Z,8.31
2022-12-08T12:45:17.418Z,7.82
2022-12-08T12:47:55.968Z,8.25
2022-12-08T12:50:33.138Z,7.68
2022-12-08T12:53:05.942Z,8.44
2022-12-08T12:55:45.907Z,8.40
2022-12-08T12:58:20.177Z,8.34
2022-12-08T13:00:47.631Z,7.75
2022-12-08T13:03:15.276Z,7.75
2022-12-08T13:05:52.060Z,8.75
2022-12-08T13:08:20.697Z,8.51
2022-12-08T13:10:49.859Z,8.45
2022-12-08T13:13:18.195Z,7.79
2022-12-08T13:15:50.730Z,8.98
2022-12-08T13:18:23.987Z,9.36
2022-12-08T13:21:00.806Z,10.12
2022-12-08T13:23:36.886Z,9.33
2022-12-08T13:26:17.993Z,9.16
2022-12-08T13:29:07.140Z,8.52
2022-12-08T13:31:38.454Z,7.93
2022-12-08T13:34:25.928Z,7.60
2022-12-08T13:37:15.183Z,7.83
2022-12-08T13:39:45.116Z,8.05
2022-12-08T13:42:12.674Z,7.12
2022-12-08T13:45:21.488Z,7.07
2022-12-08T13:48:14.032Z,6.93
2022-12-08T13:52:20.113Z,8.04
2022-12-08T13:54:10.007Z,7.57
2022-12-08T13:59:29.928Z,7.48
2022-12-08T14:01:58.363Z,6.48
2022-12-08T14:07:13.210Z,7.59
2022-12-08T14:09:40.818Z,7.23
2022-12-08T14:12:08.752Z,7.55
2022-12-08T14:15:01.763Z,7.48
2022-12-08T14:17:27.300Z,7.94
2022-12-08T14:19:56.453Z,7.41
2022-12-08T14:22:23.904Z,7.88
2022-12-08T14:24:52.429Z,7.45
2022-12-08T14:27:20.820Z,8.86
2022-12-08T14:29:57.555Z,8.47
2022-12-08T14:32:26.540Z,9.21
2022-12-08T14:34:53.914Z,8.96
2022-12-08T14:37:22.914Z,8.18
2022-12-08T14:39:50.325Z,8.92
2022-12-08T14:42:22.036Z,9.87
2022-12-08T14:44:51.256Z,8.77
2022-12-08T14:47:19.071Z,8.82
2022-12-08T14:49:48.017Z,9.07
2022-12-08T14:52:15.164Z,8.37
2022-12-08T14:54:43.462Z,8.02
2022-12-08T14:57:10.670Z,7.18
2022-12-08T14:59:40.675Z,7.35
2022-12-08T15:02:14.185Z,7.08
2022-12-08T15:04:45.900Z,7.15
2022-12-08T15:07:18.014Z,7.29
2022-12-08T15:09:46.458Z,8.37
2022-12-08T15:12:13.829Z,8.37
2022-12-08T15:14:53.900Z,7.99
2022-12-08T15:17:44.510Z,7.54
2022-12-08T15:20:31.656Z,7.29
2022-12-08T15:23:02.588Z,6.89
2022-12-08T15:25:29.802Z,7.35
2022-12-08T15:27:58.027Z,7.98
2022-12-08T15:30:28.789Z,6.45
2022-12-08T15:32:56.392Z,6.82
2022-12-08T15:35:23.678Z,6.72
2022-12-08T15:37:51.054Z,6.77
2022-12-08T15:40:19.335Z,6.96
2022-12-08T15:42:46.466Z,6.64
2022-12-08T15:45:14.467Z,6.44
2022-12-08T15:47:41.903Z,7.21
2022-12-08T15:50:19.438Z,7.21
2022-12-08T15:52:47.265Z,7.32
2022-12-08T15:55:18.861Z,7.20
2022-12-08T15:58:51.163Z,6.66
2022-12-08T16:00:53.038Z,7.21
2022-12-08T16:03:51.645Z,8.45
2022-12-08T16:06:57.487Z,7.90
2022-12-08T16:09:11.135Z,8.23
2022-12-08T16:12:06.665Z,7.67
2022-12-08T16:17:22.723Z,7.41
2022-12-08T16:19:50.524Z,7.62
2022-12-08T16:22:51.820Z,8.05
2022-12-08T16:25:22.116Z,7.74
2022-12-08T16:28:01.320Z,8.28
2022-12-08T16:30:31.201Z,8.82
2022-12-08T16:32:58.833Z,8.61
2022-12-08T16:35:26.063Z,8.33
2022-12-08T16:37:54.019Z,8.68
2022-12-08T16:40:21.406Z,7.86
2022-12-08T16:42:50.178Z,7.92
2022-12-08T16:45:25.010Z,8.60
2022-12-08T16:47:56.131Z,8.75
2022-12-08T16:50:23.563Z,8.47
2022-12-08T16:52:51.353Z,7.84
2022-12-08T16:55:19.007Z,7.93
2022-12-08T16:57:47.169Z,8.11
2022-12-08T17:00:15.597Z,7.53
2022-12-08T17:02:43.499Z,7.88
2022-12-08T17:05:15.416Z,7.73
2022-12-08T17:07:43.815Z,7.71
2022-12-08T17:10:12.375Z,9.30
2022-12-08T17:12:39.630Z,9.56
2022-12-08T17:15:07.782Z,8.81
2022-12-08T17:17:36.134Z,8.10
2022-12-08T17:20:05.516Z,8.13
2022-12-08T17:22:33.935Z,7.37
2022-12-08T17:25:05.371Z,7.40
2022-12-08T17:27:33.117Z,6.99
2022-12-08T17:30:01.096Z,6.69
2022-12-08T17:32:28.781Z,6.82
2022-12-08T17:34:56.140Z,6.87
2022-12-08T17:37:23.788Z,7.06
2022-12-08T17:39:51.360Z,6.89
2022-12-08T17:42:18.854Z,7.19
2022-12-08T17:44:46.763Z,7.63
2022-12-08T17:47:14.477Z,7.73
2022-12-08T17:49:41.886Z,7.35
2022-12-08T17:52:11.272Z,7.24
2022-12-08T17:54:41.267Z,6.87
2022-12-08T17:57:09.133Z,6.46
2022-12-08T17:59:36.591Z,6.36
2022-12-08T18:02:05.838Z,6.08
2022-12-08T18:04:34.046Z,7.03
2022-12-08T18:07:03.388Z,7.31
2022-12-08T18:09:31.617Z,7.53
2022-12-08T18:11:59.456Z,8.40
2022-12-08T18:14:27.141Z,8.65
2022-12-08T18:16:55.115Z,8.19
2022-12-08T18:19:23.256Z,9.50
2022-12-08T18:21:51.420Z,10.17
2022-12-08T18:24:20.915Z,9.80
2022-12-08T18:26:49.647Z,9.74
2022-12-08T18:29:17.972Z,10.16
2022-12-08T18:31:45.550Z,9.92
2022-12-08T18:34:14.619Z,10.62
2022-12-08T18:36:42.571Z,10.37
2022-12-08T18:39:16.266Z,9.80
2022-12-08T18:41:44.060Z,9.11
2022-12-08T18:44:11.734Z,8.98
2022-12-08T18:46:39.296Z,8.17
2022-12-08T18:49:09.643Z,8.92
2022-12-08T18:51:37.669Z,8.91
2022-12-08T18:54:05.596Z,9.14
2022-12-08T18:56:36.292Z,8.44
2022-12-08T18:59:07.092Z,8.33
2022-12-08T19:01:38.973Z,8.29
2022-12-08T19:04:28.335Z,8.90
2022-12-08T19:06:57.637Z,8.69
2022-12-08T19:09:27.063Z,8.01
2022-12-08T19:11:56.338Z,9.13
2022-12-08T19:14:28.268Z,9.06
2022-12-08T19:16:57.431Z,9.40
2022-12-08T19:19:29.316Z,10.13
2022-12-08T19:21:57.034Z,8.87
2022-12-08T19:24:25.118Z,9.58
2022-12-08T19:26:53.439Z,8.92
2022-12-08T19:29:21.779Z,9.45
2022-12-08T19:31:53.489Z,9.02
2022-12-08T19:34:24.476Z,7.83
2022-12-08T19:36:53.775Z,8.29
2022-12-08T19:39:41.330Z,9.20
2022-12-08T19:42:36.226Z,8.85
2022-12-08T19:45:09.062Z,8.03
2022-12-08T19:47:37.098Z,7.97
2022-12-08T19:50:33.817Z,8.21
2022-12-08T19:53:06.689Z,8.13
2022-12-08T19:55:34.723Z,7.22
2022-12-08T19:58:03.563Z,9.05
2022-12-08T20:00:33.813Z,7.91
2022-12-08T20:03:02.851Z,8.15
2022-12-08T20:05:31.350Z,7.87
2022-12-08T20:07:59.452Z,8.03
2022-12-08T20:10:29.665Z,7.90
2022-12-08T20:13:16.748Z,8.84
2022-12-08T20:15:45.368Z,8.77
2022-12-08T20:18:13.362Z,8.17
2022-12-08T20:20:42.981Z,6.97
2022-12-08T20:23:13.969Z,8.17
2022-12-08T20:25:46.090Z,8.23
2022-12-08T20:28:14.446Z,8.04
2022-12-08T20:30:42.829Z,7.42
2022-12-08T20:33:13.131Z,7.37
2022-12-08T20:35:41.707Z,8.60
2022-12-08T20:38:09.439Z,8.05
2022-12-08T20:40:37.539Z,9.21
2022-12-08T20:43:06.279Z,9.03
2022-12-08T20:45:33.789Z,9.16
2022-12-08T20:48:02.136Z,8.04
2022-12-08T20:50:30.380Z,8.62
2022-12-08T20:53:01.353Z,9.98
2022-12-08T20:55:29.072Z,10.24
2022-12-08T20:57:57.336Z,10.54
2022-12-08T21:00:27.373Z,10.50
2022-12-08T21:02:57.332Z,10.73
2022-12-08T21:05:25.955Z,10.85
2022-12-08T21:07:54.497Z,10.57
2022-12-08T21:10:22.260Z,10.59
2022-12-08T21:12:49.758Z,11.36
2022-12-08T21:15:17.395Z,10.83
2022-12-08T21:17:44.896Z,10.74
2022-12-08T21:20:12.770Z,9.57
2022-12-08T21:22:40.463Z,8.87
2022-12-08T21:25:08.566Z,8.88
2022-12-08T21:27:36.637Z,9.71
2022-12-08T21:30:04.288Z,9.78
2022-12-08T21:32:32.033Z,10.51
2022-12-08T21:34:59.605Z,9.92
2022-12-08T21:37:26.841Z,10.77
2022-12-08T21:39:54.095Z,11.24
2022-12-08T21:42:40.334Z,11.33
2022-12-08T21:45:07.777Z,11.14
2022-12-08T21:47:35.498Z,10.04
2022-12-08T21:50:02.937Z,9.92
2022-12-08T21:52:30.382Z,10.13
2022-12-08T21:54:58.055Z,8.78
2022-12-08T21:57:25.405Z,9.80
2022-12-08T21:59:52.763Z,9.82
2022-12-08T22:02:22.686Z,9.48
2022-12-08T22:04:52.802Z,9.08
2022-12-08T22:07:20.662Z,10.09
2022-12-08T22:09:47.890Z,10.68
2022-12-08T22:12:16.883Z,10.55
2022-12-08T22:14:44.183Z,10.90
2022-12-08T22:17:11.488Z,10.75
2022-12-08T22:19:39.420Z,9.35
2022-12-08T22:22:06.775Z,9.54
2022-12-08T22:24:34.080Z,9.27
2022-12-08T22:27:01.576Z,10.10
2022-12-08T22:29:29.002Z,10.70
2022-12-08T22:31:56.479Z,10.34
2022-12-08T22:34:24.047Z,9.82
2022-12-08T22:36:51.473Z,9.58
2022-12-08T22:39:18.698Z,9.94
2022-12-08T22:41:46.187Z,9.58
2022-12-08T22:44:13.718Z,10.66
2022-12-08T22:46:41.132Z,10.95
2022-12-08T22:49:08.840Z,11.35
2022-12-08T22:51:36.714Z,11.35
2022-12-08T22:54:04.451Z,10.65
2022-12-08T22:56:31.932Z,10.18
2022-12-08T22:58:59.457Z,9.81
2022-12-08T23:01:27.548Z,9.41
2022-12-08T23:03:55.163Z,9.79
2022-12-08T23:06:22.642Z,9.82
2022-12-08T23:08:50.355Z,9.27
2022-12-08T23:11:18.519Z,8.50
2022-12-08T23:13:45.823Z,9.00
2022-12-08T23:16:13.169Z,9.77
2022-12-08T23:18:41.659Z,10.06
2022-12-08T23:21:10.635Z,10.35
2022-12-08T23:23:37.798Z,10.38
2022-12-08T23:26:05.353Z,10.39
2022-12-08T23:28:32.487Z,10.57
2022-12-08T23:30:59.735Z,10.22
2022-12-08T23:33:27.217Z,11.11
2022-12-08T23:35:58.032Z,11.20
2022-12-08T23:38:25.551Z,10.44
2022-12-08T23:40:53.227Z,10.41
2022-12-08T23:43:20.494Z,9.83
2022-12-08T23:45:48.381Z,10.47
2022-12-08T23:48:15.959Z,10.79
2022-12-08T23:50:43.097Z,11.39
2022-12-08T23:53:10.508Z,11.06
2022-12-08T23:55:37.922Z,11.51
2022-12-08T23:58:05.159Z,11.26
